sensor_id;sensor_type;location;lat;lon;timestamp;P1;durP1;ratioP1;P2;durP2;ratioP2
63965;SDS011;50151;52.030;5.350;2023-04-01T00:01:03;8.80;;;3.25;;
63965;SDS011;50151;52.030;5.350;2023-04-01T00:03:31;13.63;;;3.95;;
63965;SDS011;50151;52.030;5.350;2023-04-01T00:05:59;11.13;;;4.40;;
63965;SDS011;50151;52.030;5.350;2023-04-01T00:08:28;14.15;;;3.83;;
63965;SDS011;50151;52.030;5.350;2023-04-01T00:10:55;18.80;;;4.72;;
63965;SDS011;50151;52.030;5.350;2023-04-01T00:13:23;11.50;;;3.55;;
63965;SDS011;50151;52.030;5.350;2023-04-01T00:15:52;16.80;;;4.78;;
63965;SDS011;50151;52.030;5.350;2023-04-01T00:18:21;16.73;;;4.35;;
63965;SDS011;50151;52.030;5.350;2023-04-01T00:20:49;8.82;;;3.28;;
63965;SDS011;50151;52.030;5.350;2023-04-01T00:23:18;15.48;;;4.70;;
63965;SDS011;50151;52.030;5.350;2023-04-01T00:25:46;14.07;;;5.32;;
63965;SDS011;50151;52.030;5.350;2023-04-01T00:28:18;21.30;;;5.97;;
63965;SDS011;50151;52.030;5.350;2023-04-01T00:30:45;17.58;;;7.72;;
63965;SDS011;50151;52.030;5.350;2023-04-01T00:33:13;18.38;;;7.00;;
63965;SDS011;50151;52.030;5.350;2023-04-01T00:35:40;19.73;;;7.20;;
63965;SDS011;50151;52.030;5.350;2023-04-01T00:38:08;17.88;;;6.53;;
63965;SDS011;50151;52.030;5.350;2023-04-01T00:40:35;16.98;;;8.05;;
63965;SDS011;50151;52.030;5.350;2023-04-01T00:43:09;16.83;;;7.43;;
63965;SDS011;50151;52.030;5.350;2023-04-01T00:45:49;18.60;;;7.88;;
63965;SDS011;50151;52.030;5.350;2023-04-01T00:48:17;22.70;;;7.78;;
63965;SDS011;50151;52.030;5.350;2023-04-01T00:50:50;22.95;;;9.40;;
63965;SDS011;50151;52.030;5.350;2023-04-01T00:53:20;23.45;;;9.35;;
63965;SDS011;50151;52.030;5.350;2023-04-01T00:55:50;22.95;;;7.60;;
63965;SDS011;50151;52.030;5.350;2023-04-01T00:58:24;19.85;;;8.93;;
63965;SDS011;50151;52.030;5.350;2023-04-01T01:00:55;19.77;;;9.23;;
63965;SDS011;50151;52.030;5.350;2023-04-01T01:03:24;17.23;;;7.25;;
63965;SDS011;50151;52.030;5.350;2023-04-01T01:06:04;14.30;;;5.25;;
63965;SDS011;50151;52.030;5.350;2023-04-01T01:11:29;19.58;;;7.13;;
63965;SDS011;50151;52.030;5.350;2023-04-01T01:16:43;22.23;;;7.65;;
63965;SDS011;50151;52.030;5.350;2023-04-01T01:22:11;17.13;;;5.82;;
63965;SDS011;50151;52.030;5.350;2023-04-01T01:25:18;21.88;;;6.93;;
63965;SDS011;50151;52.030;5.350;2023-04-01T01:28:11;10.55;;;4.57;;
63965;SDS011;50151;52.030;5.350;2023-04-01T01:31:23;24.55;;;7.47;;
63965;SDS011;50151;52.030;5.350;2023-04-01T01:39:16;16.23;;;6.57;;
63965;SDS011;50151;52.030;5.350;2023-04-01T01:41:44;19.05;;;7.35;;
63965;SDS011;50151;52.030;5.350;2023-04-01T01:44:15;20.77;;;7.80;;
63965;SDS011;50151;52.030;5.350;2023-04-01T01:46:42;21.23;;;8.45;;
63965;SDS011;50151;52.030;5.350;2023-04-01T01:49:11;23.55;;;7.90;;
63965;SDS011;50151;52.030;5.350;2023-04-01T01:51:41;17.30;;;7.28;;
63965;SDS011;50151;52.030;5.350;2023-04-01T01:54:13;24.08;;;8.10;;
63965;SDS011;50151;52.030;5.350;2023-04-01T01:56:44;24.38;;;8.45;;
63965;SDS011;50151;52.030;5.350;2023-04-01T01:59:13;18.30;;;7.70;;
63965;SDS011;50151;52.030;5.350;2023-04-01T02:01:45;23.67;;;8.55;;
63965;SDS011;50151;52.030;5.350;2023-04-01T02:04:16;22.70;;;7.45;;
63965;SDS011;50151;52.030;5.350;2023-04-01T02:06:47;19.40;;;7.50;;
63965;SDS011;50151;52.030;5.350;2023-04-01T02:09:31;17.23;;;7.28;;
63965;SDS011;50151;52.030;5.350;2023-04-01T02:12:01;16.80;;;5.65;;
63965;SDS011;50151;52.030;5.350;2023-04-01T02:17:06;15.20;;;6.90;;
63965;SDS011;50151;52.030;5.350;2023-04-01T02:19:38;16.00;;;6.57;;
63965;SDS011;50151;52.030;5.350;2023-04-01T02:22:09;19.85;;;6.38;;
63965;SDS011;50151;52.030;5.350;2023-04-01T02:24:39;15.40;;;6.20;;
63965;SDS011;50151;52.030;5.350;2023-04-01T02:27:08;12.02;;;5.28;;
63965;SDS011;50151;52.030;5.350;2023-04-01T02:29:36;19.92;;;5.70;;
63965;SDS011;50151;52.030;5.350;2023-04-01T02:32:03;11.30;;;5.25;;
63965;SDS011;50151;52.030;5.350;2023-04-01T02:34:31;16.48;;;5.57;;
63965;SDS011;50151;52.030;5.350;2023-04-01T02:36:59;9.27;;;4.63;;
63965;SDS011;50151;52.030;5.350;2023-04-01T02:39:26;12.13;;;4.70;;
63965;SDS011;50151;52.030;5.350;2023-04-01T02:41:53;10.32;;;5.25;;
63965;SDS011;50151;52.030;5.350;2023-04-01T02:44:20;8.93;;;4.60;;
63965;SDS011;50151;52.030;5.350;2023-04-01T02:46:47;8.10;;;3.58;;
63965;SDS011;50151;52.030;5.350;2023-04-01T02:49:14;9.63;;;3.80;;
63965;SDS011;50151;52.030;5.350;2023-04-01T02:51:41;10.38;;;3.92;;
63965;SDS011;50151;52.030;5.350;2023-04-01T02:54:07;8.25;;;3.92;;
63965;SDS011;50151;52.030;5.350;2023-04-01T02:56:34;6.95;;;3.58;;
63965;SDS011;50151;52.030;5.350;2023-04-01T02:59:00;8.82;;;3.88;;
63965;SDS011;50151;52.030;5.350;2023-04-01T03:01:27;5.28;;;3.35;;
63965;SDS011;50151;52.030;5.350;2023-04-01T03:03:54;9.95;;;4.28;;
63965;SDS011;50151;52.030;5.350;2023-04-01T03:06:21;5.32;;;3.38;;
63965;SDS011;50151;52.030;5.350;2023-04-01T03:08:48;7.32;;;3.88;;
63965;SDS011;50151;52.030;5.350;2023-04-01T03:11:14;6.57;;;3.40;;
63965;SDS011;50151;52.030;5.350;2023-04-01T03:13:41;8.27;;;3.40;;
63965;SDS011;50151;52.030;5.350;2023-04-01T03:16:08;7.65;;;3.45;;
63965;SDS011;50151;52.030;5.350;2023-04-01T03:18:34;5.80;;;3.35;;
63965;SDS011;50151;52.030;5.350;2023-04-01T03:21:14;5.82;;;3.10;;
63965;SDS011;50151;52.030;5.350;2023-04-01T03:23:42;10.55;;;4.85;;
63965;SDS011;50151;52.030;5.350;2023-04-01T03:26:09;6.05;;;3.30;;
63965;SDS011;50151;52.030;5.350;2023-04-01T03:28:36;7.10;;;3.60;;
63965;SDS011;50151;52.030;5.350;2023-04-01T03:31:03;7.47;;;3.58;;
63965;SDS011;50151;52.030;5.350;2023-04-01T03:33:30;7.72;;;4.03;;
63965;SDS011;50151;52.030;5.350;2023-04-01T03:35:57;8.43;;;4.60;;
63965;SDS011;50151;52.030;5.350;2023-04-01T03:38:24;7.15;;;3.80;;
63965;SDS011;50151;52.030;5.350;2023-04-01T03:40:50;7.72;;;4.03;;
63965;SDS011;50151;52.030;5.350;2023-04-01T03:43:17;9.88;;;4.25;;
63965;SDS011;50151;52.030;5.350;2023-04-01T03:45:44;6.18;;;3.88;;
63965;SDS011;50151;52.030;5.350;2023-04-01T03:48:14;8.07;;;3.97;;
63965;SDS011;50151;52.030;5.350;2023-04-01T03:50:41;8.45;;;4.22;;
63965;SDS011;50151;52.030;5.350;2023-04-01T03:53:08;5.15;;;2.80;;
63965;SDS011;50151;52.030;5.350;2023-04-01T03:55:35;6.68;;;3.35;;
63965;SDS011;50151;52.030;5.350;2023-04-01T03:58:03;9.38;;;5.05;;
63965;SDS011;50151;52.030;5.350;2023-04-01T04:00:31;8.25;;;3.92;;
63965;SDS011;50151;52.030;5.350;2023-04-01T04:02:58;4.80;;;2.67;;
63965;SDS011;50151;52.030;5.350;2023-04-01T04:05:25;8.75;;;4.28;;
63965;SDS011;50151;52.030;5.350;2023-04-01T04:07:52;7.50;;;3.78;;
63965;SDS011;50151;52.030;5.350;2023-04-01T04:10:19;4.53;;;3.20;;
63965;SDS011;50151;52.030;5.350;2023-04-01T04:12:46;7.18;;;4.00;;
63965;SDS011;50151;52.030;5.350;2023-04-01T04:15:15;8.40;;;4.65;;
63965;SDS011;50151;52.030;5.350;2023-04-01T04:17:41;8.88;;;4.50;;
63965;SDS011;50151;52.030;5.350;2023-04-01T04:20:08;6.43;;;3.72;;
63965;SDS011;50151;52.030;5.350;2023-04-01T04:22:35;5.07;;;3.63;;
63965;SDS011;50151;52.030;5.350;2023-04-01T04:25:02;7.13;;;4.50;;
63965;SDS011;50151;52.030;5.350;2023-04-01T04:27:28;7.97;;;4.55;;
63965;SDS011;50151;52.030;5.350;2023-04-01T04:29:56;5.22;;;3.35;;
63965;SDS011;50151;52.030;5.350;2023-04-01T04:32:23;5.97;;;4.07;;
63965;SDS011;50151;52.030;5.350;2023-04-01T04:34:49;7.47;;;4.57;;
63965;SDS011;50151;52.030;5.350;2023-04-01T04:37:16;7.85;;;5.05;;
63965;SDS011;50151;52.030;5.350;2023-04-01T04:39:43;7.68;;;4.30;;
63965;SDS011;50151;52.030;5.350;2023-04-01T04:42:09;6.20;;;3.88;;
63965;SDS011;50151;52.030;5.350;2023-04-01T04:44:36;5.95;;;3.00;;
63965;SDS011;50151;52.030;5.350;2023-04-01T04:47:03;6.10;;;3.50;;
63965;SDS011;50151;52.030;5.350;2023-04-01T04:49:29;3.75;;;2.50;;
63965;SDS011;50151;52.030;5.350;2023-04-01T04:51:57;4.80;;;2.70;;
63965;SDS011;50151;52.030;5.350;2023-04-01T04:54:27;6.13;;;3.30;;
63965;SDS011;50151;52.030;5.350;2023-04-01T04:56:53;6.07;;;2.85;;
63965;SDS011;50151;52.030;5.350;2023-04-01T04:59:20;2.45;;;1.88;;
63965;SDS011;50151;52.030;5.350;2023-04-01T05:01:47;4.95;;;2.67;;
63965;SDS011;50151;52.030;5.350;2023-04-01T05:04:14;4.25;;;2.33;;
63965;SDS011;50151;52.030;5.350;2023-04-01T05:06:42;4.45;;;2.72;;
63965;SDS011;50151;52.030;5.350;2023-04-01T05:09:10;4.05;;;2.92;;
63965;SDS011;50151;52.030;5.350;2023-04-01T05:11:37;3.10;;;2.10;;
63965;SDS011;50151;52.030;5.350;2023-04-01T05:14:04;3.80;;;2.60;;
63965;SDS011;50151;52.030;5.350;2023-04-01T05:16:30;4.60;;;3.33;;
63965;SDS011;50151;52.030;5.350;2023-04-01T05:18:57;4.00;;;3.17;;
63965;SDS011;50151;52.030;5.350;2023-04-01T05:21:24;4.22;;;3.20;;
63965;SDS011;50151;52.030;5.350;2023-04-01T05:23:51;5.28;;;3.40;;
63965;SDS011;50151;52.030;5.350;2023-04-01T05:26:18;4.95;;;3.28;;
63965;SDS011;50151;52.030;5.350;2023-04-01T05:28:44;5.88;;;3.97;;
63965;SDS011;50151;52.030;5.350;2023-04-01T05:31:11;8.13;;;3.75;;
63965;SDS011;50151;52.030;5.350;2023-04-01T05:33:38;5.72;;;4.05;;
63965;SDS011;50151;52.030;5.350;2023-04-01T05:36:06;6.22;;;2.88;;
63965;SDS011;50151;52.030;5.350;2023-04-01T05:38:34;7.97;;;4.32;;
63965;SDS011;50151;52.030;5.350;2023-04-01T05:41:01;5.13;;;3.42;;
63965;SDS011;50151;52.030;5.350;2023-04-01T05:43:28;5.55;;;3.40;;
63965;SDS011;50151;52.030;5.350;2023-04-01T05:45:56;4.10;;;2.78;;
63965;SDS011;50151;52.030;5.350;2023-04-01T05:48:23;7.88;;;4.57;;
63965;SDS011;50151;52.030;5.350;2023-04-01T05:50:50;6.85;;;4.82;;
63965;SDS011;50151;52.030;5.350;2023-04-01T05:53:17;6.60;;;4.90;;
63965;SDS011;50151;52.030;5.350;2023-04-01T05:55:44;6.97;;;4.95;;
63965;SDS011;50151;52.030;5.350;2023-04-01T05:58:10;7.40;;;4.70;;
63965;SDS011;50151;52.030;5.350;2023-04-01T06:00:37;7.35;;;5.38;;
63965;SDS011;50151;52.030;5.350;2023-04-01T06:03:04;7.60;;;3.63;;
63965;SDS011;50151;52.030;5.350;2023-04-01T06:05:36;8.63;;;5.25;;
63965;SDS011;50151;52.030;5.350;2023-04-01T06:08:17;6.90;;;4.47;;
63965;SDS011;50151;52.030;5.350;2023-04-01T06:11:04;6.60;;;4.78;;
63965;SDS011;50151;52.030;5.350;2023-04-01T06:16:56;5.57;;;3.65;;
63965;SDS011;50151;52.030;5.350;2023-04-01T06:25:02;7.38;;;4.60;;
63965;SDS011;50151;52.030;5.350;2023-04-01T06:27:59;11.00;;;4.93;;
63965;SDS011;50151;52.030;5.350;2023-04-01T06:30:47;5.70;;;4.13;;
63965;SDS011;50151;52.030;5.350;2023-04-01T06:33:46;7.15;;;4.57;;
63965;SDS011;50151;52.030;5.350;2023-04-01T06:50:25;5.80;;;4.22;;
63965;SDS011;50151;52.030;5.350;2023-04-01T06:55:34;7.13;;;3.78;;
63965;SDS011;50151;52.030;5.350;2023-04-01T06:58:17;4.32;;;2.17;;
63965;SDS011;50151;52.030;5.350;2023-04-01T07:01:08;4.05;;;2.65;;
63965;SDS011;50151;52.030;5.350;2023-04-01T07:03:41;3.75;;;2.83;;
63965;SDS011;50151;52.030;5.350;2023-04-01T07:06:13;3.90;;;2.78;;
63965;SDS011;50151;52.030;5.350;2023-04-01T07:08:57;3.88;;;2.75;;
63965;SDS011;50151;52.030;5.350;2023-04-01T07:11:34;3.55;;;2.35;;
63965;SDS011;50151;52.030;5.350;2023-04-01T07:16:39;2.10;;;1.73;;
63965;SDS011;50151;52.030;5.350;2023-04-01T07:22:00;5.00;;;2.65;;
63965;SDS011;50151;52.030;5.350;2023-04-01T07:24:37;3.97;;;2.92;;
63965;SDS011;50151;52.030;5.350;2023-04-01T07:27:11;5.00;;;2.53;;
63965;SDS011;50151;52.030;5.350;2023-04-01T07:29:39;4.05;;;3.00;;
63965;SDS011;50151;52.030;5.350;2023-04-01T07:34:42;3.88;;;2.00;;
63965;SDS011;50151;52.030;5.350;2023-04-01T07:37:23;2.78;;;2.17;;
63965;SDS011;50151;52.030;5.350;2023-04-01T07:40:30;2.75;;;2.00;;
63965;SDS011;50151;52.030;5.350;2023-04-01T07:43:03;2.67;;;1.98;;
63965;SDS011;50151;52.030;5.350;2023-04-01T07:51:04;5.43;;;3.30;;
63965;SDS011;50151;52.030;5.350;2023-04-01T07:54:01;5.80;;;3.72;;
63965;SDS011;50151;52.030;5.350;2023-04-01T07:59:46;7.47;;;4.35;;
63965;SDS011;50151;52.030;5.350;2023-04-01T08:08:24;6.03;;;4.18;;
63965;SDS011;50151;52.030;5.350;2023-04-01T08:14:33;5.75;;;3.97;;
63965;SDS011;50151;52.030;5.350;2023-04-01T08:22:48;6.47;;;3.47;;
63965;SDS011;50151;52.030;5.350;2023-04-01T08:25:20;7.32;;;3.65;;
63965;SDS011;50151;52.030;5.350;2023-04-01T08:27:53;6.63;;;4.30;;
63965;SDS011;50151;52.030;5.350;2023-04-01T08:30:24;6.10;;;3.88;;
63965;SDS011;50151;52.030;5.350;2023-04-01T08:33:10;7.57;;;4.43;;
63965;SDS011;50151;52.030;5.350;2023-04-01T08:35:54;9.20;;;5.05;;
63965;SDS011;50151;52.030;5.350;2023-04-01T08:38:36;6.88;;;4.35;;
63965;SDS011;50151;52.030;5.350;2023-04-01T08:41:40;5.60;;;3.72;;
63965;SDS011;50151;52.030;5.350;2023-04-01T08:47:45;7.82;;;3.95;;
63965;SDS011;50151;52.030;5.350;2023-04-01T08:53:33;8.48;;;5.28;;
63965;SDS011;50151;52.030;5.350;2023-04-01T09:04:39;7.87;;;5.13;;
63965;SDS011;50151;52.030;5.350;2023-04-01T09:07:43;8.10;;;5.28;;
63965;SDS011;50151;52.030;5.350;2023-04-01T09:10:50;7.85;;;4.45;;
63965;SDS011;50151;52.030;5.350;2023-04-01T09:22:17;9.95;;;5.68;;
63965;SDS011;50151;52.030;5.350;2023-04-01T09:27:43;12.15;;;6.43;;
63965;SDS011;50151;52.030;5.350;2023-04-01T09:36:04;4.90;;;3.42;;
63965;SDS011;50151;52.030;5.350;2023-04-01T09:38:54;10.50;;;6.38;;
63965;SDS011;50151;52.030;5.350;2023-04-01T09:44:58;9.85;;;5.15;;
63965;SDS011;50151;52.030;5.350;2023-04-01T09:55:40;6.38;;;3.78;;
63965;SDS011;50151;52.030;5.350;2023-04-01T10:26:01;4.32;;;3.08;;
63965;SDS011;50151;52.030;5.350;2023-04-01T10:31:45;4.65;;;2.67;;
63965;SDS011;50151;52.030;5.350;2023-04-01T10:34:35;3.17;;;2.17;;
63965;SDS011;50151;52.030;5.350;2023-04-01T10:37:37;5.22;;;2.97;;
63965;SDS011;50151;52.030;5.350;2023-04-01T10:40:34;4.95;;;3.20;;
63965;SDS011;50151;52.030;5.350;2023-04-01T10:57:13;3.50;;;2.35;;
63965;SDS011;50151;52.030;5.350;2023-04-01T11:14:17;4.38;;;3.10;;
63965;SDS011;50151;52.030;5.350;2023-04-01T11:29:00;5.72;;;3.75;;
63965;SDS011;50151;52.030;5.350;2023-04-01T11:40:35;4.28;;;3.33;;
63965;SDS011;50151;52.030;5.350;2023-04-01T11:43:16;3.65;;;2.88;;
63965;SDS011;50151;52.030;5.350;2023-04-01T11:46:10;3.10;;;2.20;;
63965;SDS011;50151;52.030;5.350;2023-04-01T11:49:20;2.00;;;1.77;;
63965;SDS011;50151;52.030;5.350;2023-04-01T11:52:00;3.00;;;2.40;;
63965;SDS011;50151;52.030;5.350;2023-04-01T12:08:54;2.20;;;1.40;;
63965;SDS011;50151;52.030;5.350;2023-04-01T12:26:06;1.70;;;1.38;;
63965;SDS011;50151;52.030;5.350;2023-04-01T12:31:59;2.05;;;1.85;;
63965;SDS011;50151;52.030;5.350;2023-04-01T12:34:58;4.10;;;2.03;;
63965;SDS011;50151;52.030;5.350;2023-04-01T12:37:32;6.65;;;2.38;;
63965;SDS011;50151;52.030;5.350;2023-04-01T12:40:44;4.78;;;2.85;;
63965;SDS011;50151;52.030;5.350;2023-04-01T12:43:17;3.10;;;2.30;;
63965;SDS011;50151;52.030;5.350;2023-04-01T12:51:50;3.85;;;2.47;;
63965;SDS011;50151;52.030;5.350;2023-04-01T13:08:55;5.15;;;3.15;;
63965;SDS011;50151;52.030;5.350;2023-04-01T13:11:50;4.57;;;3.63;;
63965;SDS011;50151;52.030;5.350;2023-04-01T13:14:31;4.47;;;3.47;;
63965;SDS011;50151;52.030;5.350;2023-04-01T13:19:53;4.00;;;3.25;;
63965;SDS011;50151;52.030;5.350;2023-04-01T13:22:42;3.63;;;3.15;;
63965;SDS011;50151;52.030;5.350;2023-04-01T13:25:27;3.88;;;3.42;;
63965;SDS011;50151;52.030;5.350;2023-04-01T13:33:38;4.78;;;3.83;;
63965;SDS011;50151;52.030;5.350;2023-04-01T13:53:03;4.95;;;3.72;;
63965;SDS011;50151;52.030;5.350;2023-04-01T13:55:44;5.45;;;3.78;;
63965;SDS011;50151;52.030;5.350;2023-04-01T13:58:23;6.82;;;4.47;;
63965;SDS011;50151;52.030;5.350;2023-04-01T14:09:44;4.28;;;2.30;;
63965;SDS011;50151;52.030;5.350;2023-04-01T14:20:45;2.13;;;1.70;;
63965;SDS011;50151;52.030;5.350;2023-04-01T14:35:12;2.28;;;1.80;;
63965;SDS011;50151;52.030;5.350;2023-04-01T14:49:40;7.75;;;3.40;;
63965;SDS011;50151;52.030;5.350;2023-04-01T14:52:16;4.68;;;3.92;;
63965;SDS011;50151;52.030;5.350;2023-04-01T14:54:48;4.57;;;3.10;;
63965;SDS011;50151;52.030;5.350;2023-04-01T15:02:33;2.85;;;2.47;;
63965;SDS011;50151;52.030;5.350;2023-04-01T15:08:26;3.22;;;2.90;;
63965;SDS011;50151;52.030;5.350;2023-04-01T15:11:33;3.45;;;2.70;;
63965;SDS011;50151;52.030;5.350;2023-04-01T15:17:29;4.60;;;2.60;;
63965;SDS011;50151;52.030;5.350;2023-04-01T15:39:10;3.50;;;3.05;;
63965;SDS011;50151;52.030;5.350;2023-04-01T15:42:03;3.55;;;2.95;;
63965;SDS011;50151;52.030;5.350;2023-04-01T15:53:05;5.20;;;3.03;;
63965;SDS011;50151;52.030;5.350;2023-04-01T15:58:49;3.75;;;3.30;;
63965;SDS011;50151;52.030;5.350;2023-04-01T16:07:49;3.38;;;3.08;;
63965;SDS011;50151;52.030;5.350;2023-04-01T16:10:05;3.58;;;2.95;;
63965;SDS011;50151;52.030;5.350;2023-04-01T16:12:52;2.95;;;2.65;;
63965;SDS011;50151;52.030;5.350;2023-04-01T16:21:19;2.47;;;2.00;;
63965;SDS011;50151;52.030;5.350;2023-04-01T16:24:13;2.30;;;2.10;;
63965;SDS011;50151;52.030;5.350;2023-04-01T16:29:36;2.30;;;2.00;;
63965;SDS011;50151;52.030;5.350;2023-04-01T16:37:49;3.08;;;2.60;;
63965;SDS011;50151;52.030;5.350;2023-04-01T16:45:53;2.85;;;2.58;;
63965;SDS011;50151;52.030;5.350;2023-04-01T16:48:28;3.10;;;2.72;;
63965;SDS011;50151;52.030;5.350;2023-04-01T16:51:16;2.95;;;2.50;;
63965;SDS011;50151;52.030;5.350;2023-04-01T16:53:47;2.75;;;2.47;;
63965;SDS011;50151;52.030;5.350;2023-04-01T16:56:22;4.45;;;2.70;;
63965;SDS011;50151;52.030;5.350;2023-04-01T17:01:52;3.08;;;2.50;;
63965;SDS011;50151;52.030;5.350;2023-04-01T17:04:25;4.70;;;2.53;;
63965;SDS011;50151;52.030;5.350;2023-04-01T17:10:01;2.80;;;2.50;;
63965;SDS011;50151;52.030;5.350;2023-04-01T17:12:47;3.47;;;2.60;;
63965;SDS011;50151;52.030;5.350;2023-04-01T17:15:37;2.75;;;2.50;;
63965;SDS011;50151;52.030;5.350;2023-04-01T17:18:22;3.35;;;3.05;;
63965;SDS011;50151;52.030;5.350;2023-04-01T17:21:10;4.82;;;3.08;;
63965;SDS011;50151;52.030;5.350;2023-04-01T17:23:52;3.20;;;2.90;;
63965;SDS011;50151;52.030;5.350;2023-04-01T17:35:12;3.10;;;2.80;;
63965;SDS011;50151;52.030;5.350;2023-04-01T17:49:33;3.58;;;3.13;;
63965;SDS011;50151;52.030;5.350;2023-04-01T17:55:32;3.55;;;3.25;;
63965;SDS011;50151;52.030;5.350;2023-04-01T17:58:10;3.15;;;2.80;;
63965;SDS011;50151;52.030;5.350;2023-04-01T18:00:50;3.22;;;2.58;;
63965;SDS011;50151;52.030;5.350;2023-04-01T18:07:22;3.03;;;2.72;;
63965;SDS011;50151;52.030;5.350;2023-04-01T18:13:00;3.22;;;2.92;;
63965;SDS011;50151;52.030;5.350;2023-04-01T18:18:46;3.22;;;2.70;;
63965;SDS011;50151;52.030;5.350;2023-04-01T18:24:20;3.30;;;2.95;;
63965;SDS011;50151;52.030;5.350;2023-04-01T18:27:10;4.45;;;2.65;;
63965;SDS011;50151;52.030;5.350;2023-04-01T18:29:51;3.03;;;2.63;;
63965;SDS011;50151;52.030;5.350;2023-04-01T18:38:11;4.50;;;3.45;;
63965;SDS011;50151;52.030;5.350;2023-04-01T18:40:46;4.22;;;3.08;;
63965;SDS011;50151;52.030;5.350;2023-04-01T18:46:00;4.53;;;2.72;;
63965;SDS011;50151;52.030;5.350;2023-04-01T18:51:26;5.90;;;3.47;;
63965;SDS011;50151;52.030;5.350;2023-04-01T18:54:29;3.95;;;3.00;;
63965;SDS011;50151;52.030;5.350;2023-04-01T18:57:00;3.33;;;3.03;;
63965;SDS011;50151;52.030;5.350;2023-04-01T18:59:39;3.60;;;3.10;;
63965;SDS011;50151;52.030;5.350;2023-04-01T19:05:12;3.92;;;3.30;;
63965;SDS011;50151;52.030;5.350;2023-04-01T19:13:15;3.70;;;3.22;;
63965;SDS011;50151;52.030;5.350;2023-04-01T19:18:40;3.60;;;3.15;;
63965;SDS011;50151;52.030;5.350;2023-04-01T19:21:40;3.80;;;3.30;;
63965;SDS011;50151;52.030;5.350;2023-04-01T19:32:45;4.18;;;3.58;;
63965;SDS011;50151;52.030;5.350;2023-04-01T19:43:27;3.50;;;3.05;;
63965;SDS011;50151;52.030;5.350;2023-04-01T19:49:04;3.35;;;3.05;;
63965;SDS011;50151;52.030;5.350;2023-04-01T19:51:57;3.40;;;3.10;;
63965;SDS011;50151;52.030;5.350;2023-04-01T19:57:24;4.72;;;2.90;;
63965;SDS011;50151;52.030;5.350;2023-04-01T20:00:02;2.88;;;2.58;;
63965;SDS011;50151;52.030;5.350;2023-04-01T20:02:36;2.88;;;2.58;;
63965;SDS011;50151;52.030;5.350;2023-04-01T20:05:45;4.22;;;2.88;;
63965;SDS011;50151;52.030;5.350;2023-04-01T20:10:46;3.00;;;2.70;;
63965;SDS011;50151;52.030;5.350;2023-04-01T20:13:34;3.42;;;3.00;;
63965;SDS011;50151;52.030;5.350;2023-04-01T20:16:11;3.35;;;2.40;;
63965;SDS011;50151;52.030;5.350;2023-04-01T20:18:48;3.55;;;3.00;;
63965;SDS011;50151;52.030;5.350;2023-04-01T20:27:02;3.58;;;2.92;;
63965;SDS011;50151;52.030;5.350;2023-04-01T20:29:41;3.85;;;3.20;;
63965;SDS011;50151;52.030;5.350;2023-04-01T20:32:12;6.10;;;4.00;;
63965;SDS011;50151;52.030;5.350;2023-04-01T20:37:37;4.35;;;3.55;;
63965;SDS011;50151;52.030;5.350;2023-04-01T20:42:58;4.68;;;4.22;;
63965;SDS011;50151;52.030;5.350;2023-04-01T20:45:53;4.72;;;3.92;;
63965;SDS011;50151;52.030;5.350;2023-04-01T20:51:06;6.50;;;4.05;;
63965;SDS011;50151;52.030;5.350;2023-04-01T20:56:55;5.18;;;4.10;;
63965;SDS011;50151;52.030;5.350;2023-04-01T20:59:45;5.25;;;4.57;;
63965;SDS011;50151;52.030;5.350;2023-04-01T21:02:56;5.43;;;4.40;;
63965;SDS011;50151;52.030;5.350;2023-04-01T21:27:11;5.00;;;4.43;;
63965;SDS011;50151;52.030;5.350;2023-04-01T21:33:04;4.50;;;4.03;;
63965;SDS011;50151;52.030;5.350;2023-04-01T21:41:23;7.10;;;4.00;;
63965;SDS011;50151;52.030;5.350;2023-04-01T21:44:30;7.30;;;4.07;;
